sensor_id;sensor_type;location;lat;lon;timestamp;temperature;humidity
61392;DHT22;47261;52.892;5.738;2023-06-10T00:01:13;18.90;83.90
61392;DHT22;47261;52.892;5.738;2023-06-10T00:03:38;18.90;84.10
61392;DHT22;47261;52.892;5.738;2023-06-10T00:06:04;18.90;84.20
61392;DHT22;47261;52.892;5.738;2023-06-10T00:08:30;18.90;84.30
61392;DHT22;47261;52.892;5.738;2023-06-10T00:10:56;18.90;84.50
61392;DHT22;47261;52.892;5.738;2023-06-10T00:13:22;18.80;84.60
61392;DHT22;47261;52.892;5.738;2023-06-10T00:15:48;18.80;84.60
61392;DHT22;47261;52.892;5.738;2023-06-10T00:18:13;18.80;84.70
61392;DHT22;47261;52.892;5.738;2023-06-10T00:20:39;18.80;84.90
61392;DHT22;47261;52.892;5.738;2023-06-10T00:23:06;18.80;84.80
61392;DHT22;47261;52.892;5.738;2023-06-10T00:25:33;18.80;84.80
61392;DHT22;47261;52.892;5.738;2023-06-10T00:27:59;18.80;84.90
61392;DHT22;47261;52.892;5.738;2023-06-10T00:30:25;18.80;85.00
61392;DHT22;47261;52.892;5.738;2023-06-10T00:32:51;18.70;84.90
61392;DHT22;47261;52.892;5.738;2023-06-10T00:35:17;18.70;84.90
61392;DHT22;47261;52.892;5.738;2023-06-10T00:37:43;18.70;84.90
61392;DHT22;47261;52.892;5.738;2023-06-10T00:40:08;18.70;84.90
61392;DHT22;47261;52.892;5.738;2023-06-10T00:42:35;18.70;84.80
61392;DHT22;47261;52.892;5.738;2023-06-10T00:45:00;18.70;84.70
61392;DHT22;47261;52.892;5.738;2023-06-10T00:47:27;18.70;84.70
61392;DHT22;47261;52.892;5.738;2023-06-10T00:49:53;18.70;84.70
61392;DHT22;47261;52.892;5.738;2023-06-10T00:52:21;18.70;84.60
61392;DHT22;47261;52.892;5.738;2023-06-10T00:54:47;18.70;84.60
61392;DHT22;47261;52.892;5.738;2023-06-10T00:57:13;18.70;84.60
61392;DHT22;47261;52.892;5.738;2023-06-10T00:59:40;18.70;84.60
61392;DHT22;47261;52.892;5.738;2023-06-10T01:02:06;18.70;84.60
61392;DHT22;47261;52.892;5.738;2023-06-10T01:04:33;18.70;84.60
61392;DHT22;47261;52.892;5.738;2023-06-10T01:07:24;18.70;84.60
61392;DHT22;47261;52.892;5.738;2023-06-10T01:12:49;18.70;84.90
61392;DHT22;47261;52.892;5.738;2023-06-10T01:15:18;18.60;84.80
61392;DHT22;47261;52.892;5.738;2023-06-10T01:18:13;18.60;84.90
61392;DHT22;47261;52.892;5.738;2023-06-10T01:20:41;18.60;85.00
61392;DHT22;47261;52.892;5.738;2023-06-10T01:23:09;18.60;85.60
61392;DHT22;47261;52.892;5.738;2023-06-10T01:25:45;18.60;84.90
61392;DHT22;47261;52.892;5.738;2023-06-10T01:34:00;18.60;84.80
61392;DHT22;47261;52.892;5.738;2023-06-10T01:36:27;18.50;84.50
61392;DHT22;47261;52.892;5.738;2023-06-10T01:38:54;18.60;84.60
61392;DHT22;47261;52.892;5.738;2023-06-10T01:41:21;18.50;84.50
61392;DHT22;47261;52.892;5.738;2023-06-10T01:43:47;18.50;84.50
61392;DHT22;47261;52.892;5.738;2023-06-10T01:46:14;18.50;85.10
61392;DHT22;47261;52.892;5.738;2023-06-10T01:48:41;18.50;84.60
61392;DHT22;47261;52.892;5.738;2023-06-10T01:51:07;18.50;84.70
61392;DHT22;47261;52.892;5.738;2023-06-10T01:53:33;18.40;84.70
61392;DHT22;47261;52.892;5.738;2023-06-10T01:55:58;18.40;84.60
61392;DHT22;47261;52.892;5.738;2023-06-10T01:58:24;18.40;84.60
61392;DHT22;47261;52.892;5.738;2023-06-10T02:00:50;18.30;84.50
61392;DHT22;47261;52.892;5.738;2023-06-10T02:03:15;18.30;84.50
61392;DHT22;47261;52.892;5.738;2023-06-10T02:05:41;18.30;84.40
61392;DHT22;47261;52.892;5.738;2023-06-10T02:08:06;18.20;84.40
61392;DHT22;47261;52.892;5.738;2023-06-10T02:10:32;18.20;84.50
61392;DHT22;47261;52.892;5.738;2023-06-10T02:12:58;18.20;84.60
61392;DHT22;47261;52.892;5.738;2023-06-10T02:15:23;18.20;84.60
61392;DHT22;47261;52.892;5.738;2023-06-10T02:17:50;18.20;84.70
61392;DHT22;47261;52.892;5.738;2023-06-10T02:20:16;18.10;84.80
61392;DHT22;47261;52.892;5.738;2023-06-10T02:22:42;18.10;84.90
61392;DHT22;47261;52.892;5.738;2023-06-10T02:25:07;18.10;84.90
61392;DHT22;47261;52.892;5.738;2023-06-10T02:27:34;18.00;85.00
61392;DHT22;47261;52.892;5.738;2023-06-10T02:29:59;18.00;85.20
61392;DHT22;47261;52.892;5.738;2023-06-10T02:32:25;18.00;85.40
61392;DHT22;47261;52.892;5.738;2023-06-10T02:34:51;17.90;85.60
61392;DHT22;47261;52.892;5.738;2023-06-10T02:37:17;18.00;85.80
61392;DHT22;47261;52.892;5.738;2023-06-10T02:39:43;18.00;85.80
61392;DHT22;47261;52.892;5.738;2023-06-10T02:42:08;17.90;85.70
61392;DHT22;47261;52.892;5.738;2023-06-10T02:44:34;17.90;85.70
61392;DHT22;47261;52.892;5.738;2023-06-10T02:47:00;17.90;85.80
61392;DHT22;47261;52.892;5.738;2023-06-10T02:49:26;17.90;85.80
61392;DHT22;47261;52.892;5.738;2023-06-10T02:51:54;17.80;85.80
61392;DHT22;47261;52.892;5.738;2023-06-10T02:54:20;17.80;85.90
61392;DHT22;47261;52.892;5.738;2023-06-10T02:56:46;17.80;85.90
61392;DHT22;47261;52.892;5.738;2023-06-10T02:59:13;17.80;85.90
61392;DHT22;47261;52.892;5.738;2023-06-10T03:01:39;17.80;86.00
61392;DHT22;47261;52.892;5.738;2023-06-10T03:04:06;17.70;85.90
61392;DHT22;47261;52.892;5.738;2023-06-10T03:06:32;17.70;85.90
61392;DHT22;47261;52.892;5.738;2023-06-10T03:09:00;17.60;85.70
61392;DHT22;47261;52.892;5.738;2023-06-10T03:11:25;17.60;85.70
61392;DHT22;47261;52.892;5.738;2023-06-10T03:13:51;17.60;85.60
61392;DHT22;47261;52.892;5.738;2023-06-10T03:16:19;17.50;85.60
61392;DHT22;47261;52.892;5.738;2023-06-10T03:18:45;17.50;85.60
61392;DHT22;47261;52.892;5.738;2023-06-10T03:21:10;17.50;85.60
61392;DHT22;47261;52.892;5.738;2023-06-10T03:23:36;17.50;85.60
61392;DHT22;47261;52.892;5.738;2023-06-10T03:26:02;17.40;85.50
61392;DHT22;47261;52.892;5.738;2023-06-10T03:28:30;17.40;85.50
61392;DHT22;47261;52.892;5.738;2023-06-10T03:30:56;17.40;85.50
61392;DHT22;47261;52.892;5.738;2023-06-10T03:33:22;17.40;85.50
61392;DHT22;47261;52.892;5.738;2023-06-10T03:35:47;17.30;85.60
61392;DHT22;47261;52.892;5.738;2023-06-10T03:38:13;17.30;85.70
61392;DHT22;47261;52.892;5.738;2023-06-10T03:40:39;17.30;85.70
61392;DHT22;47261;52.892;5.738;2023-06-10T03:43:04;17.20;85.70
61392;DHT22;47261;52.892;5.738;2023-06-10T03:45:30;17.30;85.90
61392;DHT22;47261;52.892;5.738;2023-06-10T03:47:57;17.20;85.90
61392;DHT22;47261;52.892;5.738;2023-06-10T03:50:23;17.20;86.10
61392;DHT22;47261;52.892;5.738;2023-06-10T03:52:50;17.20;86.80
61392;DHT22;47261;52.892;5.738;2023-06-10T03:55:16;17.20;86.40
61392;DHT22;47261;52.892;5.738;2023-06-10T03:57:42;17.20;86.50
61392;DHT22;47261;52.892;5.738;2023-06-10T04:00:08;17.20;86.60
61392;DHT22;47261;52.892;5.738;2023-06-10T04:02:38;17.20;86.70
61392;DHT22;47261;52.892;5.738;2023-06-10T04:05:11;17.20;86.80
61392;DHT22;47261;52.892;5.738;2023-06-10T04:07:37;17.20;86.90
61392;DHT22;47261;52.892;5.738;2023-06-10T04:10:06;17.20;87.00
61392;DHT22;47261;52.892;5.738;2023-06-10T04:12:32;17.20;87.10
61392;DHT22;47261;52.892;5.738;2023-06-10T04:14:58;17.30;87.20
61392;DHT22;47261;52.892;5.738;2023-06-10T04:17:23;17.20;87.20
61392;DHT22;47261;52.892;5.738;2023-06-10T04:19:49;17.30;87.30
61392;DHT22;47261;52.892;5.738;2023-06-10T04:22:16;17.30;87.30
61392;DHT22;47261;52.892;5.738;2023-06-10T04:24:42;17.30;87.20
61392;DHT22;47261;52.892;5.738;2023-06-10T04:27:08;17.30;87.20
61392;DHT22;47261;52.892;5.738;2023-06-10T04:29:34;17.30;87.10
61392;DHT22;47261;52.892;5.738;2023-06-10T04:31:59;17.30;87.10
61392;DHT22;47261;52.892;5.738;2023-06-10T04:34:27;17.30;87.00
61392;DHT22;47261;52.892;5.738;2023-06-10T04:36:52;17.30;86.90
61392;DHT22;47261;52.892;5.738;2023-06-10T04:39:18;17.30;86.90
61392;DHT22;47261;52.892;5.738;2023-06-10T04:41:44;17.40;86.90
61392;DHT22;47261;52.892;5.738;2023-06-10T04:44:09;17.30;86.90
61392;DHT22;47261;52.892;5.738;2023-06-10T04:46:36;17.40;86.90
61392;DHT22;47261;52.892;5.738;2023-06-10T04:49:02;17.40;86.80
61392;DHT22;47261;52.892;5.738;2023-06-10T04:51:28;17.40;86.60
61392;DHT22;47261;52.892;5.738;2023-06-10T04:53:53;17.40;86.40
61392;DHT22;47261;52.892;5.738;2023-06-10T04:56:19;17.30;86.50
61392;DHT22;47261;52.892;5.738;2023-06-10T04:58:45;17.30;86.50
61392;DHT22;47261;52.892;5.738;2023-06-10T05:01:11;17.30;86.50
61392;DHT22;47261;52.892;5.738;2023-06-10T05:03:36;17.30;86.50
61392;DHT22;47261;52.892;5.738;2023-06-10T05:06:02;17.30;86.60
61392;DHT22;47261;52.892;5.738;2023-06-10T05:08:28;17.30;86.60
61392;DHT22;47261;52.892;5.738;2023-06-10T05:10:53;17.30;86.60
61392;DHT22;47261;52.892;5.738;2023-06-10T05:13:19;17.30;86.80
61392;DHT22;47261;52.892;5.738;2023-06-10T05:15:45;17.30;86.90
61392;DHT22;47261;52.892;5.738;2023-06-10T05:18:11;17.30;87.00
61392;DHT22;47261;52.892;5.738;2023-06-10T05:20:38;17.30;87.20
61392;DHT22;47261;52.892;5.738;2023-06-10T05:23:04;17.30;87.30
61392;DHT22;47261;52.892;5.738;2023-06-10T05:25:33;17.30;87.30
61392;DHT22;47261;52.892;5.738;2023-06-10T05:27:59;17.50;86.80
61392;DHT22;47261;52.892;5.738;2023-06-10T05:30:24;17.90;85.60
61392;DHT22;47261;52.892;5.738;2023-06-10T05:32:51;18.40;84.40
61392;DHT22;47261;52.892;5.738;2023-06-10T05:35:18;18.80;83.30
61392;DHT22;47261;52.892;5.738;2023-06-10T05:37:44;19.20;82.30
61392;DHT22;47261;52.892;5.738;2023-06-10T05:40:10;19.50;81.60
61392;DHT22;47261;52.892;5.738;2023-06-10T05:42:36;19.80;80.80
61392;DHT22;47261;52.892;5.738;2023-06-10T05:45:02;20.10;80.30
61392;DHT22;47261;52.892;5.738;2023-06-10T05:47:28;20.20;79.80
61392;DHT22;47261;52.892;5.738;2023-06-10T05:49:53;20.40;79.50
61392;DHT22;47261;52.892;5.738;2023-06-10T05:52:19;20.50;79.10
61392;DHT22;47261;52.892;5.738;2023-06-10T05:54:45;20.60;78.90
61392;DHT22;47261;52.892;5.738;2023-06-10T05:57:11;20.70;78.80
61392;DHT22;47261;52.892;5.738;2023-06-10T05:59:36;20.70;78.60
61392;DHT22;47261;52.892;5.738;2023-06-10T06:02:02;20.90;78.40
61392;DHT22;47261;52.892;5.738;2023-06-10T06:04:27;21.00;78.20
61392;DHT22;47261;52.892;5.738;2023-06-10T06:06:53;21.10;77.80
61392;DHT22;47261;52.892;5.738;2023-06-10T06:09:19;21.20;77.50
61392;DHT22;47261;52.892;5.738;2023-06-10T06:11:44;21.40;77.90
61392;DHT22;47261;52.892;5.738;2023-06-10T06:14:10;21.40;76.90
61392;DHT22;47261;52.892;5.738;2023-06-10T06:16:36;21.50;76.80
61392;DHT22;47261;52.892;5.738;2023-06-10T06:19:01;21.50;76.60
61392;DHT22;47261;52.892;5.738;2023-06-10T06:21:27;21.40;76.60
61392;DHT22;47261;52.892;5.738;2023-06-10T06:23:52;21.40;76.70
61392;DHT22;47261;52.892;5.738;2023-06-10T06:26:18;21.20;77.10
61392;DHT22;47261;52.892;5.738;2023-06-10T06:28:44;21.20;77.60
61392;DHT22;47261;52.892;5.738;2023-06-10T06:31:09;21.10;77.70
61392;DHT22;47261;52.892;5.738;2023-06-10T06:33:35;21.10;78.10
61392;DHT22;47261;52.892;5.738;2023-06-10T06:36:00;21.10;78.10
61392;DHT22;47261;52.892;5.738;2023-06-10T06:38:26;21.20;77.80
61392;DHT22;47261;52.892;5.738;2023-06-10T06:40:52;21.20;77.50
61392;DHT22;47261;52.892;5.738;2023-06-10T06:43:18;21.10;77.70
61392;DHT22;47261;52.892;5.738;2023-06-10T06:45:44;21.10;77.80
61392;DHT22;47261;52.892;5.738;2023-06-10T06:48:11;21.00;77.60
61392;DHT22;47261;52.892;5.738;2023-06-10T06:50:36;21.00;77.90
61392;DHT22;47261;52.892;5.738;2023-06-10T06:53:03;20.90;78.40
61392;DHT22;47261;52.892;5.738;2023-06-10T06:55:28;20.90;78.60
61392;DHT22;47261;52.892;5.738;2023-06-10T06:57:54;20.90;78.40
61392;DHT22;47261;52.892;5.738;2023-06-10T07:00:21;20.90;78.50
61392;DHT22;47261;52.892;5.738;2023-06-10T07:02:46;20.90;79.10
61392;DHT22;47261;52.892;5.738;2023-06-10T07:05:12;20.90;78.90
61392;DHT22;47261;52.892;5.738;2023-06-10T07:07:38;21.00;78.70
61392;DHT22;47261;52.892;5.738;2023-06-10T07:10:04;21.00;79.30
61392;DHT22;47261;52.892;5.738;2023-06-10T07:12:29;21.10;79.20
61392;DHT22;47261;52.892;5.738;2023-06-10T07:14:55;21.10;79.40
61392;DHT22;47261;52.892;5.738;2023-06-10T07:17:21;21.30;79.50
61392;DHT22;47261;52.892;5.738;2023-06-10T07:19:46;21.40;79.00
61392;DHT22;47261;52.892;5.738;2023-06-10T07:22:12;21.50;78.80
61392;DHT22;47261;52.892;5.738;2023-06-10T07:24:38;21.60;78.40
61392;DHT22;47261;52.892;5.738;2023-06-10T07:27:04;21.70;77.80
61392;DHT22;47261;52.892;5.738;2023-06-10T07:29:31;21.80;77.30
61392;DHT22;47261;52.892;5.738;2023-06-10T07:31:56;22.00;77.00
61392;DHT22;47261;52.892;5.738;2023-06-10T07:34:22;22.10;76.70
61392;DHT22;47261;52.892;5.738;2023-06-10T07:36:47;22.10;76.30
61392;DHT22;47261;52.892;5.738;2023-06-10T07:39:13;22.20;76.10
61392;DHT22;47261;52.892;5.738;2023-06-10T07:41:39;22.20;76.00
61392;DHT22;47261;52.892;5.738;2023-06-10T07:44:04;22.30;75.90
61392;DHT22;47261;52.892;5.738;2023-06-10T07:46:30;22.30;75.80
61392;DHT22;47261;52.892;5.738;2023-06-10T07:48:56;22.30;75.60
61392;DHT22;47261;52.892;5.738;2023-06-10T07:51:21;22.40;75.60
61392;DHT22;47261;52.892;5.738;2023-06-10T07:53:47;22.50;75.50
61392;DHT22;47261;52.892;5.738;2023-06-10T07:56:13;22.60;75.20
61392;DHT22;47261;52.892;5.738;2023-06-10T07:58:38;22.60;74.60
61392;DHT22;47261;52.892;5.738;2023-06-10T08:01:04;22.80;74.20
61392;DHT22;47261;52.892;5.738;2023-06-10T08:03:30;22.90;74.10
61392;DHT22;47261;52.892;5.738;2023-06-10T08:05:55;23.00;73.10
61392;DHT22;47261;52.892;5.738;2023-06-10T08:08:21;23.20;72.30
61392;DHT22;47261;52.892;5.738;2023-06-10T08:10:47;23.30;72.40
61392;DHT22;47261;52.892;5.738;2023-06-10T08:13:13;23.30;72.70
61392;DHT22;47261;52.892;5.738;2023-06-10T08:15:39;23.40;72.10
61392;DHT22;47261;52.892;5.738;2023-06-10T08:18:04;23.50;70.90
61392;DHT22;47261;52.892;5.738;2023-06-10T08:20:30;23.50;70.60
61392;DHT22;47261;52.892;5.738;2023-06-10T08:22:55;23.50;70.10
61392;DHT22;47261;52.892;5.738;2023-06-10T08:25:21;23.60;70.20
61392;DHT22;47261;52.892;5.738;2023-06-10T08:27:48;23.60;69.60
61392;DHT22;47261;52.892;5.738;2023-06-10T08:30:13;23.70;68.10
61392;DHT22;47261;52.892;5.738;2023-06-10T08:32:39;23.80;67.50
61392;DHT22;47261;52.892;5.738;2023-06-10T08:35:05;23.80;66.80
61392;DHT22;47261;52.892;5.738;2023-06-10T08:37:31;23.90;67.30
61392;DHT22;47261;52.892;5.738;2023-06-10T08:39:57;23.90;66.20
61392;DHT22;47261;52.892;5.738;2023-06-10T08:44:54;24.10;65.50
61392;DHT22;47261;52.892;5.738;2023-06-10T08:47:22;24.20;63.90
61392;DHT22;47261;52.892;5.738;2023-06-10T08:49:48;24.30;64.10
61392;DHT22;47261;52.892;5.738;2023-06-10T08:52:17;24.40;64.20
61392;DHT22;47261;52.892;5.738;2023-06-10T08:55:03;24.50;63.80
61392;DHT22;47261;52.892;5.738;2023-06-10T08:57:29;24.60;62.20
61392;DHT22;47261;52.892;5.738;2023-06-10T08:59:57;24.70;62.40
61392;DHT22;47261;52.892;5.738;2023-06-10T09:02:24;24.80;62.50
61392;DHT22;47261;52.892;5.738;2023-06-10T09:04:50;24.80;63.00
61392;DHT22;47261;52.892;5.738;2023-06-10T09:07:17;24.80;63.60
61392;DHT22;47261;52.892;5.738;2023-06-10T09:09:43;24.90;63.30
61392;DHT22;47261;52.892;5.738;2023-06-10T09:12:10;25.00;63.70
61392;DHT22;47261;52.892;5.738;2023-06-10T09:14:36;25.10;63.30
61392;DHT22;47261;52.892;5.738;2023-06-10T09:17:03;25.10;62.50
61392;DHT22;47261;52.892;5.738;2023-06-10T09:19:29;25.20;63.40
61392;DHT22;47261;52.892;5.738;2023-06-10T09:21:55;25.50;63.60
61392;DHT22;47261;52.892;5.738;2023-06-10T09:24:22;25.70;63.20
61392;DHT22;47261;52.892;5.738;2023-06-10T09:26:48;25.90;63.20
61392;DHT22;47261;52.892;5.738;2023-06-10T09:29:14;26.10;63.20
61392;DHT22;47261;52.892;5.738;2023-06-10T09:31:40;26.20;62.90
61392;DHT22;47261;52.892;5.738;2023-06-10T09:34:13;26.40;62.40
61392;DHT22;47261;52.892;5.738;2023-06-10T09:36:39;26.60;61.50
61392;DHT22;47261;52.892;5.738;2023-06-10T09:39:13;26.80;61.90
61392;DHT22;47261;52.892;5.738;2023-06-10T09:41:43;27.00;61.10
61392;DHT22;47261;52.892;5.738;2023-06-10T09:44:19;27.10;60.70
61392;DHT22;47261;52.892;5.738;2023-06-10T09:46:46;27.30;59.70
61392;DHT22;47261;52.892;5.738;2023-06-10T09:49:13;27.50;59.20
61392;DHT22;47261;52.892;5.738;2023-06-10T09:51:52;27.50;58.40
61392;DHT22;47261;52.892;5.738;2023-06-10T09:54:18;27.60;58.30
61392;DHT22;47261;52.892;5.738;2023-06-10T09:56:50;27.70;58.10
61392;DHT22;47261;52.892;5.738;2023-06-10T09:59:24;27.80;57.50
61392;DHT22;47261;52.892;5.738;2023-06-10T10:01:56;27.90;57.40
61392;DHT22;47261;52.892;5.738;2023-06-10T10:04:25;28.00;56.90
61392;DHT22;47261;52.892;5.738;2023-06-10T10:06:51;28.10;56.30
61392;DHT22;47261;52.892;5.738;2023-06-10T10:09:17;28.20;56.70
61392;DHT22;47261;52.892;5.738;2023-06-10T10:11:44;28.30;56.60
61392;DHT22;47261;52.892;5.738;2023-06-10T10:14:10;28.50;55.70
61392;DHT22;47261;52.892;5.738;2023-06-10T10:16:37;28.70;55.40
61392;DHT22;47261;52.892;5.738;2023-06-10T10:19:20;28.80;54.30
61392;DHT22;47261;52.892;5.738;2023-06-10T10:22:01;28.80;53.50
61392;DHT22;47261;52.892;5.738;2023-06-10T10:24:46;28.90;53.20
61392;DHT22;47261;52.892;5.738;2023-06-10T10:27:18;29.00;53.20
61392;DHT22;47261;52.892;5.738;2023-06-10T10:29:59;29.10;53.00
61392;DHT22;47261;52.892;5.738;2023-06-10T10:32:38;29.30;52.90
61392;DHT22;47261;52.892;5.738;2023-06-10T10:35:09;29.40;52.60
61392;DHT22;47261;52.892;5.738;2023-06-10T10:37:39;29.60;51.90
61392;DHT22;47261;52.892;5.738;2023-06-10T10:40:06;29.70;51.00
61392;DHT22;47261;52.892;5.738;2023-06-10T10:42:34;29.90;50.90
61392;DHT22;47261;52.892;5.738;2023-06-10T10:45:00;30.00;50.00
61392;DHT22;47261;52.892;5.738;2023-06-10T10:47:27;30.10;50.00
61392;DHT22;47261;52.892;5.738;2023-06-10T10:49:55;30.10;49.70
61392;DHT22;47261;52.892;5.738;2023-06-10T10:52:24;30.20;49.60
61392;DHT22;47261;52.892;5.738;2023-06-10T10:54:53;30.30;48.80
61392;DHT22;47261;52.892;5.738;2023-06-10T10:57:23;30.40;48.00
61392;DHT22;47261;52.892;5.738;2023-06-10T11:02:18;30.60;47.70
61392;DHT22;47261;52.892;5.738;2023-06-10T11:04:46;30.70;47.60
61392;DHT22;47261;52.892;5.738;2023-06-10T11:07:12;30.80;47.10
61392;DHT22;47261;52.892;5.738;2023-06-10T11:10:00;30.90;46.70
61392;DHT22;47261;52.892;5.738;2023-06-10T11:12:42;30.90;46.60
61392;DHT22;47261;52.892;5.738;2023-06-10T11:15:13;31.00;45.70
61392;DHT22;47261;52.892;5.738;2023-06-10T11:20:59;31.10;44.00
61392;DHT22;47261;52.892;5.738;2023-06-10T11:26:20;31.20;43.50
61392;DHT22;47261;52.892;5.738;2023-06-10T11:31:23;31.30;43.80
61392;DHT22;47261;52.892;5.738;2023-06-10T11:34:02;31.40;44.10
61392;DHT22;47261;52.892;5.738;2023-06-10T11:36:29;31.50;43.10
61392;DHT22;47261;52.892;5.738;2023-06-10T11:39:03;31.70;43.10
61392;DHT22;47261;52.892;5.738;2023-06-10T11:41:30;31.90;42.80
61392;DHT22;47261;52.892;5.738;2023-06-10T11:44:00;32.00;42.00
61392;DHT22;47261;52.892;5.738;2023-06-10T11:46:26;32.00;41.60
61392;DHT22;47261;52.892;5.738;2023-06-10T11:48:58;32.10;41.70
61392;DHT22;47261;52.892;5.738;2023-06-10T11:51:29;32.10;41.30
61392;DHT22;47261;52.892;5.738;2023-06-10T11:53:55;32.30;41.40
61392;DHT22;47261;52.892;5.738;2023-06-10T11:56:28;32.40;41.00
61392;DHT22;47261;52.892;5.738;2023-06-10T11:59:02;32.50;40.60
61392;DHT22;47261;52.892;5.738;2023-06-10T12:01:31;32.60;40.00
61392;DHT22;47261;52.892;5.738;2023-06-10T12:04:05;32.70;39.70
61392;DHT22;47261;52.892;5.738;2023-06-10T12:06:44;32.60;39.50
61392;DHT22;47261;52.892;5.738;2023-06-10T12:11:45;32.30;40.50
61392;DHT22;47261;52.892;5.738;2023-06-10T12:14:11;32.20;40.00
61392;DHT22;47261;52.892;5.738;2023-06-10T12:16:37;32.00;40.20
61392;DHT22;47261;52.892;5.738;2023-06-10T12:19:04;31.70;39.80
61392;DHT22;47261;52.892;5.738;2023-06-10T12:21:32;31.40;39.60
61392;DHT22;47261;52.892;5.738;2023-06-10T12:24:10;31.10;39.70
61392;DHT22;47261;52.892;5.738;2023-06-10T12:26:37;30.90;39.20
61392;DHT22;47261;52.892;5.738;2023-06-10T12:29:15;30.80;39.60
61392;DHT22;47261;52.892;5.738;2023-06-10T12:32:01;30.60;40.10
61392;DHT22;47261;52.892;5.738;2023-06-10T12:36:55;30.40;39.80
61392;DHT22;47261;52.892;5.738;2023-06-10T12:39:20;30.30;39.70
61392;DHT22;47261;52.892;5.738;2023-06-10T12:41:50;30.20;39.60
61392;DHT22;47261;52.892;5.738;2023-06-10T12:44:16;30.20;40.10
61392;DHT22;47261;52.892;5.738;2023-06-10T12:46:42;30.20;39.50
61392;DHT22;47261;52.892;5.738;2023-06-10T12:49:07;30.20;38.90
61392;DHT22;47261;52.892;5.738;2023-06-10T12:51:33;30.10;39.40
61392;DHT22;47261;52.892;5.738;2023-06-10T12:54:00;30.10;39.70
61392;DHT22;47261;52.892;5.738;2023-06-10T12:56:25;30.10;39.00
61392;DHT22;47261;52.892;5.738;2023-06-10T12:58:51;30.00;38.70
61392;DHT22;47261;52.892;5.738;2023-06-10T13:01:16;29.90;38.90
61392;DHT22;47261;52.892;5.738;2023-06-10T13:03:42;29.80;39.20
61392;DHT22;47261;52.892;5.738;2023-06-10T13:06:08;29.70;38.70
61392;DHT22;47261;52.892;5.738;2023-06-10T13:08:33;29.70;38.60
61392;DHT22;47261;52.892;5.738;2023-06-10T13:10:59;29.70;37.20
61392;DHT22;47261;52.892;5.738;2023-06-10T13:13:25;29.60;36.40
61392;DHT22;47261;52.892;5.738;2023-06-10T13:15:51;29.50;36.10
61392;DHT22;47261;52.892;5.738;2023-06-10T13:18:17;29.40;36.00
61392;DHT22;47261;52.892;5.738;2023-06-10T13:20:45;29.40;36.00
61392;DHT22;47261;52.892;5.738;2023-06-10T13:23:11;29.30;36.30
61392;DHT22;47261;52.892;5.738;2023-06-10T13:25:36;29.30;36.70
61392;DHT22;47261;52.892;5.738;2023-06-10T13:28:02;29.40;36.40
61392;DHT22;47261;52.892;5.738;2023-06-10T13:30:28;29.40;36.50
61392;DHT22;47261;52.892;5.738;2023-06-10T13:32:54;29.40;37.10
61392;DHT22;47261;52.892;5.738;2023-06-10T13:35:19;29.50;37.30
61392;DHT22;47261;52.892;5.738;2023-06-10T13:37:45;29.50;36.80
61392;DHT22;47261;52.892;5.738;2023-06-10T13:40:11;29.50;36.60
61392;DHT22;47261;52.892;5.738;2023-06-10T13:42:37;29.60;36.40
61392;DHT22;47261;52.892;5.738;2023-06-10T13:45:04;29.70;35.90
61392;DHT22;47261;52.892;5.738;2023-06-10T13:47:31;29.80;36.60
61392;DHT22;47261;52.892;5.738;2023-06-10T13:49:57;29.90;37.70
61392;DHT22;47261;52.892;5.738;2023-06-10T13:52:22;30.00;37.30
61392;DHT22;47261;52.892;5.738;2023-06-10T13:54:48;30.20;37.00
61392;DHT22;47261;52.892;5.738;2023-06-10T13:57:13;30.50;37.20
61392;DHT22;47261;52.892;5.738;2023-06-10T13:59:39;30.70;37.00
61392;DHT22;47261;52.892;5.738;2023-06-10T14:02:04;30.90;37.70
61392;DHT22;47261;52.892;5.738;2023-06-10T14:04:30;31.00;36.90
61392;DHT22;47261;52.892;5.738;2023-06-10T14:06:56;31.10;36.60
61392;DHT22;47261;52.892;5.738;2023-06-10T14:09:22;31.00;36.60
61392;DHT22;47261;52.892;5.738;2023-06-10T14:11:48;30.80;36.10
61392;DHT22;47261;52.892;5.738;2023-06-10T14:14:14;30.70;36.60
61392;DHT22;47261;52.892;5.738;2023-06-10T14:16:40;30.50;35.90
61392;DHT22;47261;52.892;5.738;2023-06-10T14:19:06;30.50;36.00
61392;DHT22;47261;52.892;5.738;2023-06-10T14:21:31;30.40;36.60
61392;DHT22;47261;52.892;5.738;2023-06-10T14:23:57;30.40;36.60
61392;DHT22;47261;52.892;5.738;2023-06-10T14:26:22;30.40;37.00
61392;DHT22;47261;52.892;5.738;2023-06-10T14:28:49;30.30;36.80
61392;DHT22;47261;52.892;5.738;2023-06-10T14:31:15;30.20;37.10
61392;DHT22;47261;52.892;5.738;2023-06-10T14:33:41;30.20;38.30
61392;DHT22;47261;52.892;5.738;2023-06-10T14:36:09;30.20;39.10
61392;DHT22;47261;52.892;5.738;2023-06-10T14:38:35;30.20;39.80
61392;DHT22;47261;52.892;5.738;2023-06-10T14:41:00;30.20;40.10
61392;DHT22;47261;52.892;5.738;2023-06-10T14:43:26;30.40;39.50
61392;DHT22;47261;52.892;5.738;2023-06-10T14:45:52;30.30;39.50
61392;DHT22;47261;52.892;5.738;2023-06-10T14:48:17;30.30;40.40
61392;DHT22;47261;52.892;5.738;2023-06-10T14:50:43;30.30;40.50
61392;DHT22;47261;52.892;5.738;2023-06-10T14:53:12;30.30;39.30
61392;DHT22;47261;52.892;5.738;2023-06-10T14:55:37;30.10;39.00
61392;DHT22;47261;52.892;5.738;2023-06-10T14:58:03;30.10;39.20
61392;DHT22;47261;52.892;5.738;2023-06-10T15:00:28;30.00;39.80
61392;DHT22;47261;52.892;5.738;2023-06-10T15:02:54;30.00;39.90
61392;DHT22;47261;52.892;5.738;2023-06-10T15:05:23;30.00;40.50
61392;DHT22;47261;52.892;5.738;2023-06-10T15:07:48;29.90;40.50
61392;DHT22;47261;52.892;5.738;2023-06-10T15:10:14;29.80;39.90
61392;DHT22;47261;52.892;5.738;2023-06-10T15:12:41;29.70;40.20
61392;DHT22;47261;52.892;5.738;2023-06-10T15:15:07;29.60;40.50
61392;DHT22;47261;52.892;5.738;2023-06-10T15:17:32;29.40;41.10
61392;DHT22;47261;52.892;5.738;2023-06-10T15:19:58;29.40;41.00
61392;DHT22;47261;52.892;5.738;2023-06-10T15:22:24;29.40;41.40
61392;DHT22;47261;52.892;5.738;2023-06-10T15:24:49;29.40;41.50
61392;DHT22;47261;52.892;5.738;2023-06-10T15:27:15;29.30;41.40
61392;DHT22;47261;52.892;5.738;2023-06-10T15:29:41;29.30;40.90
61392;DHT22;47261;52.892;5.738;2023-06-10T15:32:07;29.30;41.40
61392;DHT22;47261;52.892;5.738;2023-06-10T15:34:32;29.20;41.70
61392;DHT22;47261;52.892;5.738;2023-06-10T15:36:58;29.20;42.00
61392;DHT22;47261;52.892;5.738;2023-06-10T15:39:24;29.10;42.80
61392;DHT22;47261;52.892;5.738;2023-06-10T15:41:50;29.10;42.60
61392;DHT22;47261;52.892;5.738;2023-06-10T15:44:16;29.00;42.90
61392;DHT22;47261;52.892;5.738;2023-06-10T15:46:41;29.00;42.90
61392;DHT22;47261;52.892;5.738;2023-06-10T15:49:07;28.90;43.00
61392;DHT22;47261;52.892;5.738;2023-06-10T15:51:33;28.90;43.40
61392;DHT22;47261;52.892;5.738;2023-06-10T15:53:59;28.90;44.40
61392;DHT22;47261;52.892;5.738;2023-06-10T15:56:24;28.90;45.10